createdAt,value
2022-09-25T00:01:17.132Z,61.26
2022-09-25T00:03:44.063Z,60.95
2022-09-25T00:06:18.515Z,60.92
2022-09-25T00:08:46.191Z,61.03
2022-09-25T00:11:16.433Z,61.12
2022-09-25T00:13:44.515Z,61.14
2022-09-25T00:16:16.532Z,60.65
2022-09-25T00:19:02.288Z,61.18
2022-09-25T00:21:31.679Z,60.72
2022-09-25T00:24:00.950Z,61.02
2022-09-25T00:26:30.316Z,61.31
2022-09-25T00:29:00.488Z,61.20
2022-09-25T00:31:28.851Z,61.36
2022-09-25T00:33:59.667Z,61.38
2022-09-25T00:36:26.815Z,61.25
2022-09-25T00:38:54.563Z,61.16
2022-09-25T00:41:25.900Z,61.29
2022-09-25T00:43:56.347Z,61.41
2022-09-25T00:46:40.766Z,61.53
2022-09-25T00:49:16.383Z,61.49
2022-09-25T00:51:56.891Z,61.51
2022-09-25T00:54:33.776Z,61.91
2022-09-25T00:57:07.497Z,61.75
2022-09-25T00:59:40.327Z,61.88
2022-09-25T01:02:14.283Z,61.94
2022-09-25T01:04:46.209Z,62.24
2022-09-25T01:07:14.850Z,62.24
2022-09-25T01:09:41.860Z,62.64
2022-09-25T01:12:09.475Z,62.50
2022-09-25T01:14:37.445Z,62.18
2022-09-25T01:17:14.698Z,62.21
2022-09-25T01:20:11.259Z,62.47
2022-09-25T01:23:27.153Z,62.12
2022-09-25T01:26:25.975Z,61.96
2022-09-25T01:29:20.463Z,62.13
2022-09-25T01:32:05.089Z,62.20
2022-09-25T01:34:54.343Z,62.14
2022-09-25T01:37:26.291Z,62.00
2022-09-25T01:40:05.852Z,62.06
2022-09-25T01:42:43.884Z,61.95
2022-09-25T01:45:20.589Z,61.92
2022-09-25T01:47:51.640Z,62.40
2022-09-25T01:50:31.421Z,62.23
2022-09-25T01:53:04.465Z,62.27
2022-09-25T01:55:38.514Z,62.63
2022-09-25T01:58:22.904Z,62.53
2022-09-25T02:00:59.343Z,62.46
2022-09-25T02:03:40.007Z,62.56
2022-09-25T02:06:10.300Z,62.42
2022-09-25T02:08:44.221Z,62.21
2022-09-25T02:11:12.170Z,62.35
2022-09-25T02:13:58.817Z,62.49
2022-09-25T02:16:38.232Z,62.11
2022-09-25T02:19:24.561Z,62.38
2022-09-25T02:22:05.374Z,62.17
2022-09-25T02:24:58.705Z,62.39
2022-09-25T02:27:27.834Z,62.40
2022-09-25T02:29:56.458Z,62.24
2022-09-25T02:32:29.416Z,61.91
2022-09-25T02:34:57.868Z,62.37
2022-09-25T02:37:24.828Z,62.38
2022-09-25T02:39:57.948Z,62.18
2022-09-25T02:42:58.195Z,62.26
2022-09-25T02:46:04.667Z,62.20
2022-09-25T02:48:59.809Z,62.27
2022-09-25T02:51:51.303Z,62.48
2022-09-25T02:54:31.376Z,62.46
2022-09-25T02:57:22.253Z,62.12
2022-09-25T02:59:56.691Z,62.21
2022-09-25T03:02:24.316Z,62.13
2022-09-25T03:04:52.480Z,62.11
2022-09-25T03:07:20.067Z,61.86
2022-09-25T03:09:49.020Z,62.09
2022-09-25T03:12:15.987Z,61.99
2022-09-25T03:14:43.364Z,62.30
2022-09-25T03:17:11.743Z,62.23
2022-09-25T03:19:38.939Z,62.10
2022-09-25T03:22:05.979Z,62.14
2022-09-25T03:24:33.037Z,61.87
2022-09-25T03:26:59.924Z,62.08
2022-09-25T03:29:26.874Z,62.04
2022-09-25T03:31:53.763Z,62.00
2022-09-25T03:34:21.189Z,62.02
2022-09-25T03:36:48.069Z,61.77
2022-09-25T03:39:17.865Z,61.92
2022-09-25T03:41:45.729Z,62.21
2022-09-25T03:44:12.800Z,62.27
2022-09-25T03:46:39.898Z,62.25
2022-09-25T03:49:07.700Z,62.37
2022-09-25T03:51:35.191Z,62.09
2022-09-25T03:54:03.990Z,62.46
2022-09-25T03:56:31.094Z,62.30
2022-09-25T03:58:58.441Z,62.50
2022-09-25T04:01:27.144Z,62.43
2022-09-25T04:03:54.521Z,62.16
2022-09-25T04:06:25.881Z,62.26
2022-09-25T04:08:53.688Z,62.57
2022-09-25T04:11:24.185Z,62.27
2022-09-25T04:13:52.566Z,62.42
2022-09-25T04:16:21.094Z,62.29
2022-09-25T04:18:48.460Z,62.58
2022-09-25T04:21:16.905Z,62.39
2022-09-25T04:24:03.947Z,62.46
2022-09-25T04:26:31.683Z,62.40
2022-09-25T04:29:01.306Z,62.58
2022-09-25T04:31:29.299Z,62.48
2022-09-25T04:33:56.221Z,62.75
2022-09-25T04:36:23.098Z,62.70
2022-09-25T04:38:50.026Z,62.51
2022-09-25T04:41:19.691Z,62.51
2022-09-25T04:43:46.588Z,62.51
2022-09-25T04:46:20.909Z,62.51
2022-09-25T04:48:48.644Z,62.27
2022-09-25T04:51:15.534Z,62.26
2022-09-25T04:53:42.807Z,62.52
2022-09-25T04:56:15.392Z,62.80
2022-09-25T04:58:49.333Z,62.28
2022-09-25T05:01:18.169Z,62.38
2022-09-25T05:03:50.255Z,62.33
2022-09-25T05:06:17.380Z,62.23
2022-09-25T05:08:44.262Z,62.65
2022-09-25T05:11:11.441Z,62.59
2022-09-25T05:13:38.418Z,62.38
2022-09-25T05:16:05.466Z,62.42
2022-09-25T05:18:32.548Z,62.67
2022-09-25T05:21:04.945Z,62.63
2022-09-25T05:23:31.837Z,62.60
2022-09-25T05:26:02.050Z,62.55
2022-09-25T05:28:33.337Z,62.30
2022-09-25T05:31:03.606Z,62.38
2022-09-25T05:33:35.235Z,62.53
2022-09-25T05:36:03.732Z,62.33
2022-09-25T05:38:33.324Z,62.85
2022-09-25T05:41:05.214Z,62.57
2022-09-25T05:43:33.280Z,62.70
2022-09-25T05:46:01.097Z,62.79
2022-09-25T05:48:28.066Z,62.47
2022-09-25T05:50:56.603Z,62.65
2022-09-25T05:53:24.565Z,62.80
2022-09-25T05:55:51.798Z,62.79
2022-09-25T05:58:18.960Z,62.80
2022-09-25T06:00:45.901Z,62.60
2022-09-25T06:03:12.822Z,62.96
2022-09-25T06:05:40.721Z,62.70
2022-09-25T06:08:08.383Z,62.74
2022-09-25T06:10:35.632Z,62.68
2022-09-25T06:13:04.947Z,63.15
2022-09-25T06:15:38.262Z,63.07
2022-09-25T06:18:06.650Z,62.84
2022-09-25T06:20:33.983Z,62.75
2022-09-25T06:23:01.140Z,62.77
2022-09-25T06:25:36.488Z,62.83
2022-09-25T06:28:04.712Z,62.71
2022-09-25T06:30:35.226Z,62.91
2022-09-25T06:33:09.574Z,62.99
2022-09-25T06:35:41.568Z,63.16
2022-09-25T06:38:08.469Z,62.99
2022-09-25T06:40:37.981Z,62.85
2022-09-25T06:43:05.685Z,63.24
2022-09-25T06:45:34.279Z,63.14
2022-09-25T06:48:03.587Z,63.05
2022-09-25T06:50:38.165Z,62.83
2022-09-25T06:53:05.077Z,62.73
2022-09-25T06:55:35.127Z,62.50
2022-09-25T06:58:02.558Z,62.41
2022-09-25T07:00:29.434Z,62.46
2022-09-25T07:03:16.785Z,62.73
2022-09-25T07:05:44.757Z,62.76
2022-09-25T07:08:13.957Z,62.98
2022-09-25T07:10:47.244Z,62.83
2022-09-25T07:13:14.154Z,62.82
2022-09-25T07:15:41.077Z,62.44
2022-09-25T07:18:07.977Z,62.37
2022-09-25T07:20:34.870Z,62.23
2022-09-25T07:23:04.034Z,62.74
2022-09-25T07:25:34.211Z,62.43
2022-09-25T07:28:01.123Z,62.69
2022-09-25T07:30:29.546Z,62.17
2022-09-25T07:33:00.105Z,62.13
2022-09-25T07:35:27.313Z,61.86
2022-09-25T07:37:57.855Z,61.29
2022-09-25T07:40:27.382Z,61.02
2022-09-25T07:43:03.516Z,60.98
2022-09-25T07:45:31.041Z,60.59
2022-09-25T07:48:02.934Z,60.14
2022-09-25T07:50:33.537Z,59.92
2022-09-25T07:53:00.610Z,60.21
2022-09-25T07:55:28.627Z,59.07
2022-09-25T07:57:58.795Z,58.81
2022-09-25T08:00:25.758Z,59.29
2022-09-25T08:02:59.577Z,58.81
2022-09-25T08:05:27.665Z,58.88
2022-09-25T08:07:54.960Z,59.16
2022-09-25T08:10:22.706Z,58.77
2022-09-25T08:12:49.764Z,58.88
2022-09-25T08:15:16.745Z,57.85
2022-09-25T08:17:43.814Z,57.81
2022-09-25T08:20:11.142Z,58.10
2022-09-25T08:22:38.133Z,58.06
2022-09-25T08:25:05.443Z,57.34
2022-09-25T08:27:32.542Z,57.60
2022-09-25T08:29:59.416Z,56.76
2022-09-25T08:32:26.318Z,56.16
2022-09-25T08:34:54.221Z,56.23
2022-09-25T08:37:21.099Z,55.96
2022-09-25T08:39:47.998Z,55.78
2022-09-25T08:42:30.112Z,54.79
2022-09-25T08:45:21.567Z,54.84
2022-09-25T08:48:11.005Z,53.61
2022-09-25T08:50:38.188Z,53.74
2022-09-25T08:53:20.441Z,53.32
2022-09-25T08:56:07.307Z,53.35
2022-09-25T08:58:42.604Z,52.95
2022-09-25T09:01:47.149Z,52.73
2022-09-25T09:04:31.986Z,53.19
2022-09-25T09:07:28.408Z,52.86
2022-09-25T09:10:00.764Z,52.22
2022-09-25T09:12:49.772Z,52.01
2022-09-25T09:15:40.308Z,51.99
2022-09-25T09:18:30.416Z,52.16
2022-09-25T09:21:03.658Z,52.13
2022-09-25T09:23:43.175Z,52.14
2022-09-25T09:26:43.473Z,51.94
2022-09-25T09:29:52.857Z,51.39
2022-09-25T09:32:47.485Z,51.58
2022-09-25T09:35:38.620Z,51.13
2022-09-25T09:38:23.877Z,51.45
2022-09-25T09:41:34.616Z,51.68
2022-09-25T09:44:39.949Z,50.73
2022-09-25T09:47:26.950Z,50.66
2022-09-25T09:50:06.291Z,50.70
2022-09-25T09:52:40.307Z,50.13
2022-09-25T09:55:37.639Z,49.88
2022-09-25T09:58:13.412Z,50.01
2022-09-25T10:00:40.898Z,49.62
2022-09-25T10:03:21.050Z,49.41
2022-09-25T10:06:11.799Z,49.48
2022-09-25T10:08:38.803Z,49.37
2022-09-25T10:11:18.075Z,49.23
2022-09-25T10:13:46.161Z,49.65
2022-09-25T10:16:20.308Z,49.57
2022-09-25T10:19:02.470Z,49.21
2022-09-25T10:21:41.205Z,49.07
2022-09-25T10:24:08.238Z,49.23
2022-09-25T10:26:41.147Z,48.75
2022-09-25T10:29:20.146Z,48.13
2022-09-25T10:31:47.416Z,48.27
2022-09-25T10:34:16.328Z,47.78
2022-09-25T10:36:49.001Z,46.81
2022-09-25T10:39:44.077Z,46.87
2022-09-25T10:42:39.626Z,46.77
2022-09-25T10:45:32.403Z,47.08
2022-09-25T10:48:18.321Z,46.54
2022-09-25T10:50:45.843Z,45.93
2022-09-25T10:53:30.446Z,45.88
2022-09-25T10:56:09.327Z,45.79
2022-09-25T10:58:55.107Z,45.63
2022-09-25T11:01:42.904Z,45.75
2022-09-25T11:04:30.030Z,45.23
2022-09-25T11:07:07.597Z,45.61
2022-09-25T11:09:36.676Z,45.71
2022-09-25T11:12:23.583Z,45.26
2022-09-25T11:15:07.151Z,45.33
2022-09-25T11:17:43.243Z,45.05
2022-09-25T11:20:18.753Z,45.08
2022-09-25T11:23:11.175Z,44.85
2022-09-25T11:25:49.205Z,44.97
2022-09-25T11:28:54.438Z,44.94
2022-09-25T11:31:40.783Z,44.63
2022-09-25T11:34:27.793Z,44.26
2022-09-25T11:37:17.163Z,44.87
2022-09-25T11:40:12.593Z,44.96
2022-09-25T11:42:51.403Z,45.26
2022-09-25T11:45:36.440Z,45.06
2022-09-25T11:48:19.710Z,44.98
2022-09-25T11:51:04.804Z,44.89
2022-09-25T11:54:32.630Z,45.11
2022-09-25T11:57:20.187Z,44.88
2022-09-25T12:00:18.117Z,44.91
2022-09-25T12:03:28.390Z,44.70
2022-09-25T12:06:32.435Z,44.64
2022-09-25T12:09:31.188Z,45.38
2022-09-25T12:12:47.604Z,45.61
2022-09-25T12:16:02.732Z,44.72
2022-09-25T12:18:45.201Z,44.81
2022-09-25T12:21:47.897Z,44.92
2022-09-25T12:24:40.147Z,45.22
2022-09-25T12:27:40.701Z,44.61
2022-09-25T12:30:18.916Z,44.74
2022-09-25T12:33:15.731Z,44.78
2022-09-25T12:36:24.745Z,44.58
2022-09-25T12:39:16.257Z,44.73
2022-09-25T12:41:54.253Z,44.18
2022-09-25T12:44:47.430Z,43.95
2022-09-25T12:47:34.159Z,44.19
2022-09-25T12:50:09.690Z,44.18
2022-09-25T12:52:48.201Z,43.57
2022-09-25T12:55:37.433Z,44.11
2022-09-25T12:58:37.114Z,43.77
2022-09-25T13:01:27.415Z,43.39
2022-09-25T13:04:15.561Z,43.79
2022-09-25T13:07:10.129Z,43.56
2022-09-25T13:09:45.083Z,43.62
2022-09-25T13:12:33.169Z,43.85
2022-09-25T13:15:16.523Z,43.85
2022-09-25T13:17:43.675Z,44.04
2022-09-25T13:20:28.734Z,44.35
2022-09-25T13:23:05.258Z,43.48
2022-09-25T13:26:02.077Z,43.61
2022-09-25T13:28:33.755Z,44.31
2022-09-25T13:31:13.457Z,44.58
2022-09-25T13:33:52.230Z,45.04
2022-09-25T13:36:23.243Z,44.99
2022-09-25T13:39:20.037Z,45.42
2022-09-25T13:41:55.387Z,45.34
2022-09-25T13:44:40.323Z,45.38
2022-09-25T13:47:25.126Z,45.35
2022-09-25T13:50:11.131Z,45.13
2022-09-25T13:52:43.732Z,45.32
2022-09-25T13:55:13.562Z,45.12
2022-09-25T13:57:58.451Z,44.73
2022-09-25T14:00:50.561Z,44.42
2022-09-25T14:03:50.001Z,44.69
2022-09-25T14:06:24.903Z,44.94
2022-09-25T14:08:57.276Z,44.53
2022-09-25T14:11:32.744Z,44.76
2022-09-25T14:14:01.848Z,44.65
2022-09-25T14:16:37.156Z,44.69
2022-09-25T14:19:05.795Z,44.78
2022-09-25T14:21:35.945Z,44.98
2022-09-25T14:24:23.378Z,44.30
2022-09-25T14:26:53.423Z,44.21
2022-09-25T14:29:39.162Z,44.44
2022-09-25T14:32:55.116Z,44.24
2022-09-25T14:35:46.740Z,44.52
2022-09-25T14:38:51.240Z,44.87
2022-09-25T14:41:54.420Z,44.53
2022-09-25T14:45:03.858Z,44.72
2022-09-25T14:47:36.562Z,44.40
2022-09-25T14:50:05.858Z,44.66
2022-09-25T14:52:36.334Z,44.60
2022-09-25T14:55:05.301Z,44.74
2022-09-25T14:57:36.275Z,44.53
2022-09-25T15:00:08.048Z,44.77
2022-09-25T15:02:41.916Z,44.82
2022-09-25T15:05:27.077Z,44.85
2022-09-25T15:07:59.879Z,45.38
2022-09-25T15:10:38.899Z,45.31
2022-09-25T15:13:18.645Z,45.31
2022-09-25T15:16:12.645Z,45.11
2022-09-25T15:18:42.959Z,45.56
2022-09-25T15:21:21.945Z,45.81
2022-09-25T15:23:48.856Z,45.67
2022-09-25T15:26:18.539Z,46.42
2022-09-25T15:28:46.302Z,46.28
2022-09-25T15:31:13.752Z,46.61
2022-09-25T15:33:41.723Z,46.82
2022-09-25T15:36:23.687Z,47.31
2022-09-25T15:39:00.853Z,47.31
2022-09-25T15:41:29.298Z,47.05
2022-09-25T15:44:24.205Z,47.38
2022-09-25T15:46:53.894Z,47.35
2022-09-25T15:49:35.245Z,47.62
2022-09-25T15:52:19.469Z,47.62
2022-09-25T15:54:46.724Z,47.82
2022-09-25T15:57:17.325Z,47.78
2022-09-25T16:00:06.627Z,47.93
2022-09-25T16:03:07.901Z,48.15
2022-09-25T16:05:36.570Z,48.33
2022-09-25T16:08:32.341Z,48.57
2022-09-25T16:11:22.594Z,48.65
2022-09-25T16:13:52.507Z,48.47
2022-09-25T16:16:29.913Z,48.62
2022-09-25T16:19:25.900Z,48.99
2022-09-25T16:21:53.785Z,48.88
2022-09-25T16:24:27.876Z,49.04
2022-09-25T16:26:59.012Z,48.79
2022-09-25T16:29:32.648Z,48.90
2022-09-25T16:32:16.118Z,49.10
2022-09-25T16:34:57.441Z,49.14
2022-09-25T16:37:28.924Z,49.09
2022-09-25T16:40:24.792Z,49.23
2022-09-25T16:42:55.797Z,49.14
2022-09-25T16:45:34.200Z,49.33
2022-09-25T16:48:37.896Z,49.35
2022-09-25T16:51:11.168Z,49.57
2022-09-25T16:53:40.058Z,49.58
2022-09-25T16:56:06.929Z,49.59
2022-09-25T16:58:36.086Z,49.90
2022-09-25T17:01:04.760Z,50.14
2022-09-25T17:03:49.656Z,50.43
2022-09-25T17:06:26.357Z,50.49
2022-09-25T17:08:53.657Z,50.34
2022-09-25T17:11:22.285Z,50.55
2022-09-25T17:13:50.073Z,50.75
2022-09-25T17:16:17.243Z,50.52
2022-09-25T17:18:44.168Z,50.65
2022-09-25T17:21:14.523Z,50.93
2022-09-25T17:23:42.547Z,50.74
2022-09-25T17:26:27.712Z,51.17
2022-09-25T17:28:54.592Z,50.90
2022-09-25T17:31:22.189Z,51.08
2022-09-25T17:33:52.393Z,50.77
2022-09-25T17:36:19.555Z,50.96
2022-09-25T17:38:46.462Z,50.92
2022-09-25T17:41:32.588Z,50.97
2022-09-25T17:43:59.856Z,50.85
2022-09-25T17:46:27.726Z,51.33
2022-09-25T17:48:55.119Z,51.15
2022-09-25T17:51:27.648Z,51.96
2022-09-25T17:53:56.048Z,51.92
2022-09-25T17:56:24.706Z,52.19
2022-09-25T17:58:57.228Z,52.17
2022-09-25T18:01:27.196Z,52.67
2022-09-25T18:04:00.169Z,52.38
2022-09-25T18:06:29.181Z,52.78
2022-09-25T18:08:56.509Z,52.34
2022-09-25T18:11:25.423Z,52.77
2022-09-25T18:13:56.808Z,52.94
2022-09-25T18:16:30.540Z,52.93
2022-09-25T18:19:16.421Z,53.40
2022-09-25T18:22:01.930Z,53.46
2022-09-25T18:24:29.018Z,53.65
2022-09-25T18:26:57.938Z,53.90
2022-09-25T18:29:25.203Z,53.73
2022-09-25T18:31:52.308Z,53.93
2022-09-25T18:34:21.598Z,53.78
2022-09-25T18:36:49.907Z,53.74
2022-09-25T18:39:20.151Z,54.13
2022-09-25T18:41:48.209Z,54.06
2022-09-25T18:44:17.634Z,54.09
2022-09-25T18:46:44.722Z,54.38
2022-09-25T18:49:11.828Z,54.42
2022-09-25T18:51:38.739Z,54.60
2022-09-25T18:54:05.842Z,54.29
2022-09-25T18:56:34.608Z,54.80
2022-09-25T18:59:05.534Z,54.57
2022-09-25T19:01:34.569Z,55.02
2022-09-25T19:04:01.709Z,54.42
2022-09-25T19:06:28.582Z,54.52
2022-09-25T19:08:57.269Z,55.04
2022-09-25T19:11:26.340Z,55.18
2022-09-25T19:13:53.618Z,54.85
2022-09-25T19:16:21.493Z,54.81
2022-09-25T19:18:50.138Z,55.30
2022-09-25T19:21:22.280Z,55.05
2022-09-25T19:23:50.273Z,55.38
2022-09-25T19:26:22.139Z,55.49
2022-09-25T19:28:49.284Z,55.73
2022-09-25T19:31:20.552Z,55.32
2022-09-25T19:33:47.882Z,55.76
2022-09-25T19:36:24.498Z,55.54
2022-09-25T19:38:52.205Z,56.04
2022-09-25T19:41:26.323Z,55.72
2022-09-25T19:43:57.328Z,56.45
2022-09-25T19:46:25.175Z,56.56
2022-09-25T19:48:52.377Z,56.42
2022-09-25T19:51:22.127Z,56.64
2022-09-25T19:53:50.009Z,56.78
2022-09-25T19:56:19.094Z,57.06
2022-09-25T19:58:50.837Z,57.16
2022-09-25T20:01:26.128Z,57.16
2022-09-25T20:03:55.629Z,57.40
2022-09-25T20:06:24.001Z,57.51
2022-09-25T20:08:57.885Z,57.76
2022-09-25T20:11:25.599Z,57.95
2022-09-25T20:13:53.738Z,58.26
2022-09-25T20:16:25.407Z,58.54
2022-09-25T20:19:04.501Z,58.93
2022-09-25T20:21:34.915Z,58.99
2022-09-25T20:24:04.580Z,58.16
2022-09-25T20:26:31.794Z,58.80
2022-09-25T20:29:08.653Z,59.00
2022-09-25T20:31:38.132Z,59.15
2022-09-25T20:34:05.270Z,58.66
2022-09-25T20:36:32.382Z,58.74
2022-09-25T20:39:00.838Z,59.26
2022-09-25T20:41:27.711Z,59.03
2022-09-25T20:43:57.037Z,58.92
2022-09-25T20:46:25.301Z,59.43
2022-09-25T20:48:57.039Z,58.79
2022-09-25T20:51:27.407Z,59.06
2022-09-25T20:54:00.609Z,58.74
2022-09-25T20:56:30.967Z,58.80
2022-09-25T20:58:59.927Z,58.64
2022-09-25T21:01:31.467Z,58.71
2022-09-25T21:04:01.389Z,58.91
2022-09-25T21:06:32.143Z,58.80
2022-09-25T21:09:02.518Z,58.87
2022-09-25T21:11:31.703Z,58.38
2022-09-25T21:14:02.464Z,59.04
2022-09-25T21:16:31.750Z,58.62
2022-09-25T21:19:02.102Z,58.47
2022-09-25T21:21:29.399Z,58.63
2022-09-25T21:23:58.118Z,58.92
2022-09-25T21:26:28.439Z,58.56
2022-09-25T21:28:58.727Z,58.74
2022-09-25T21:31:32.845Z,58.88
2022-09-25T21:34:00.384Z,59.35
2022-09-25T21:36:28.732Z,58.97
2022-09-25T21:38:56.459Z,59.12
2022-09-25T21:41:25.800Z,58.63
2022-09-25T21:43:54.942Z,59.31
2022-09-25T21:46:22.862Z,59.04
2022-09-25T21:48:54.044Z,59.37
2022-09-25T21:51:23.820Z,58.96
2022-09-25T21:53:52.538Z,59.39
2022-09-25T21:56:22.680Z,59.40
2022-09-25T21:58:51.860Z,58.75
2022-09-25T22:01:22.130Z,59.27
2022-09-25T22:03:51.447Z,58.86
2022-09-25T22:06:26.429Z,58.83
2022-09-25T22:08:57.501Z,58.98
2022-09-25T22:11:24.675Z,59.46
2022-09-25T22:13:52.544Z,59.15
2022-09-25T22:16:23.613Z,58.95
2022-09-25T22:18:58.685Z,58.94
2022-09-25T22:21:30.235Z,59.07
2022-09-25T22:23:57.957Z,58.99
2022-09-25T22:26:26.356Z,59.19
2022-09-25T22:28:53.792Z,58.96
2022-09-25T22:31:24.739Z,59.20
2022-09-25T22:34:12.467Z,58.76
2022-09-25T22:36:39.391Z,58.79
2022-09-25T22:39:06.541Z,59.05
2022-09-25T22:41:33.734Z,59.35
2022-09-25T22:44:01.516Z,59.11
2022-09-25T22:46:28.940Z,58.95
2022-09-25T22:48:56.296Z,59.17
2022-09-25T22:51:25.468Z,58.85
2022-09-25T22:53:54.128Z,58.73
2022-09-25T22:56:26.262Z,58.55
2022-09-25T22:58:57.350Z,58.40
2022-09-25T23:01:42.188Z,58.26
2022-09-25T23:04:15.313Z,58.79
2022-09-25T23:06:42.935Z,58.65
2022-09-25T23:09:17.190Z,58.14
2022-09-25T23:11:45.104Z,58.38
2022-09-25T23:14:17.007Z,57.71
2022-09-25T23:16:45.920Z,58.05
2022-09-25T23:19:13.869Z,57.63
2022-09-25T23:21:41.267Z,58.16
2022-09-25T23:24:15.720Z,57.93
2022-09-25T23:26:43.771Z,58.07
2022-09-25T23:29:14.545Z,57.83
2022-09-25T23:31:42.335Z,57.84
2022-09-25T23:34:10.111Z,58.18
2022-09-25T23:36:37.322Z,57.90
2022-09-25T23:39:05.611Z,57.88
2022-09-25T23:41:38.249Z,58.34
2022-09-25T23:44:08.610Z,58.16
2022-09-25T23:46:39.729Z,58.40
2022-09-25T23:49:07.561Z,58.10
2022-09-25T23:51:34.684Z,58.58
2022-09-25T23:54:02.291Z,58.67
2022-09-25T23:56:32.579Z,58.37
2022-09-25T23:59:03.641Z,58.46
